createdAt,value
2023-03-27T00:01:30.844Z,65.54
2023-03-27T00:04:02.370Z,65.57
2023-03-27T00:06:34.704Z,65.39
2023-03-27T00:09:04.772Z,65.25
2023-03-27T00:11:39.670Z,65.08
2023-03-27T00:14:09.483Z,64.97
2023-03-27T00:16:38.167Z,64.81
2023-03-27T00:19:15.325Z,64.67
2023-03-27T00:21:46.902Z,64.67
2023-03-27T00:24:16.115Z,64.64
2023-03-27T00:26:45.039Z,64.53
2023-03-27T00:29:13.629Z,64.41
2023-03-27T00:31:45.669Z,64.38
2023-03-27T00:34:14.671Z,64.46
2023-03-27T00:36:43.926Z,64.59
2023-03-27T00:39:13.026Z,64.59
2023-03-27T00:41:41.582Z,64.63
2023-03-27T00:44:31.506Z,64.60
2023-03-27T00:47:03.144Z,64.70
2023-03-27T00:49:33.863Z,64.67
2023-03-27T00:52:03.689Z,64.59
2023-03-27T00:54:36.341Z,64.57
2023-03-27T00:57:07.460Z,64.53
2023-03-27T00:59:40.053Z,64.59
2023-03-27T01:02:09.203Z,64.41
2023-03-27T01:04:39.068Z,64.04
2023-03-27T01:07:08.868Z,64.28
2023-03-27T01:09:38.325Z,64.43
2023-03-27T01:12:09.508Z,64.28
2023-03-27T01:14:46.140Z,64.34
2023-03-27T01:17:19.121Z,64.78
2023-03-27T01:20:15.296Z,64.99
2023-03-27T01:23:02.388Z,65.24
2023-03-27T01:25:38.605Z,65.13
2023-03-27T01:28:35.210Z,65.11
2023-03-27T01:31:27.952Z,65.13
2023-03-27T01:33:59.777Z,65.14
2023-03-27T01:36:55.862Z,65.01
2023-03-27T01:39:27.974Z,65.06
2023-03-27T01:42:20.570Z,64.97
2023-03-27T01:45:14.606Z,65.02
2023-03-27T01:47:55.153Z,65.14
2023-03-27T01:50:35.034Z,65.17
2023-03-27T01:53:06.176Z,65.28
2023-03-27T01:55:36.735Z,65.44
2023-03-27T01:58:14.221Z,65.77
2023-03-27T02:00:52.473Z,65.73
2023-03-27T02:03:28.937Z,65.54
2023-03-27T02:06:01.779Z,65.40
2023-03-27T02:08:35.957Z,65.36
2023-03-27T02:11:13.656Z,65.29
2023-03-27T02:14:14.112Z,65.30
2023-03-27T02:16:46.634Z,65.73
2023-03-27T02:19:23.524Z,65.88
2023-03-27T02:21:52.551Z,65.80
2023-03-27T02:24:22.691Z,65.87
2023-03-27T02:26:59.867Z,65.95
2023-03-27T02:29:55.694Z,65.88
2023-03-27T02:32:46.731Z,65.80
2023-03-27T02:35:28.145Z,65.67
2023-03-27T02:38:04.735Z,65.85
2023-03-27T02:41:03.274Z,65.69
2023-03-27T02:43:46.653Z,65.69
2023-03-27T02:46:31.736Z,65.60
2023-03-27T02:49:03.435Z,65.65
2023-03-27T02:51:39.324Z,65.73
2023-03-27T02:54:23.240Z,66.04
2023-03-27T02:56:56.547Z,66.20
2023-03-27T02:59:39.717Z,66.09
2023-03-27T03:02:11.093Z,65.90
2023-03-27T03:05:22.657Z,65.97
2023-03-27T03:07:54.526Z,65.95
2023-03-27T03:10:26.706Z,66.04
2023-03-27T03:13:00.488Z,66.11
2023-03-27T03:15:29.791Z,66.32
2023-03-27T03:17:58.799Z,66.61
2023-03-27T03:20:31.232Z,66.80
2023-03-27T03:23:01.751Z,66.71
2023-03-27T03:25:31.650Z,66.72
2023-03-27T03:28:01.013Z,66.99
2023-03-27T03:30:30.537Z,66.76
2023-03-27T03:33:20.117Z,67.10
2023-03-27T03:35:52.918Z,67.53
2023-03-27T03:38:38.280Z,67.43
2023-03-27T03:41:14.277Z,67.34
2023-03-27T03:43:42.788Z,67.29
2023-03-27T03:46:15.056Z,67.20
2023-03-27T03:48:44.224Z,66.87
2023-03-27T03:51:20.761Z,66.90
2023-03-27T03:53:49.456Z,66.55
2023-03-27T03:56:17.950Z,66.35
2023-03-27T03:58:48.486Z,66.36
2023-03-27T04:01:20.810Z,66.00
2023-03-27T04:03:52.748Z,65.79
2023-03-27T04:06:21.874Z,65.95
2023-03-27T04:08:51.445Z,66.12
2023-03-27T04:11:49.253Z,66.26
2023-03-27T04:14:45.498Z,66.20
2023-03-27T04:17:58.071Z,66.23
2023-03-27T04:20:27.472Z,66.21
2023-03-27T04:22:56.488Z,66.17
2023-03-27T04:25:25.324Z,66.18
2023-03-27T04:27:54.004Z,66.06
2023-03-27T04:30:26.081Z,65.88
2023-03-27T04:33:19.015Z,65.83
2023-03-27T04:36:09.322Z,65.61
2023-03-27T04:38:46.687Z,65.69
2023-03-27T04:41:22.632Z,65.70
2023-03-27T04:43:54.696Z,65.63
2023-03-27T04:46:23.526Z,65.67
2023-03-27T04:48:58.087Z,66.07
2023-03-27T04:51:46.942Z,66.36
2023-03-27T04:54:16.112Z,66.11
2023-03-27T04:56:47.314Z,65.84
2023-03-27T04:59:21.689Z,65.58
2023-03-27T05:02:06.725Z,65.60
2023-03-27T05:04:49.085Z,65.30
2023-03-27T05:07:22.652Z,65.40
2023-03-27T05:09:52.160Z,65.20
2023-03-27T05:12:21.790Z,65.04
2023-03-27T05:14:55.076Z,64.55
2023-03-27T05:17:41.134Z,64.08
2023-03-27T05:20:17.069Z,64.30
2023-03-27T05:22:46.948Z,64.11
2023-03-27T05:25:23.625Z,63.92
2023-03-27T05:27:56.281Z,63.76
2023-03-27T05:30:28.907Z,63.12
2023-03-27T05:33:21.258Z,62.07
2023-03-27T05:35:50.386Z,61.70
2023-03-27T05:38:19.693Z,60.31
2023-03-27T05:40:57.833Z,58.78
2023-03-27T05:43:26.675Z,58.22
2023-03-27T05:45:55.696Z,56.24
2023-03-27T05:48:26.424Z,54.75
2023-03-27T05:50:59.942Z,53.94
2023-03-27T05:53:35.716Z,52.33
2023-03-27T05:56:25.737Z,49.51
2023-03-27T05:58:59.632Z,50.03
2023-03-27T06:01:28.979Z,48.23
2023-03-27T06:03:59.377Z,47.07
2023-03-27T06:06:51.350Z,44.91
2023-03-27T06:09:23.172Z,45.29
2023-03-27T06:12:16.442Z,44.06
2023-03-27T06:14:47.063Z,42.88
2023-03-27T06:17:42.443Z,39.24
2023-03-27T06:20:16.199Z,38.98
2023-03-27T06:22:53.332Z,37.14
2023-03-27T06:25:26.968Z,39.43
2023-03-27T06:27:56.785Z,37.04
2023-03-27T06:30:26.470Z,37.34
2023-03-27T06:33:40.965Z,34.48
2023-03-27T06:36:18.416Z,35.36
2023-03-27T06:38:52.105Z,33.51
2023-03-27T06:41:21.295Z,33.82
2023-03-27T06:44:11.342Z,32.98
2023-03-27T06:46:58.865Z,33.25
2023-03-27T06:49:34.970Z,32.13
2023-03-27T06:52:11.120Z,32.72
2023-03-27T06:54:41.047Z,32.96
2023-03-27T06:57:09.923Z,33.19
2023-03-27T06:59:50.439Z,32.97
2023-03-27T07:02:22.468Z,32.00
2023-03-27T07:05:04.872Z,31.12
2023-03-27T07:07:41.338Z,30.80
2023-03-27T07:10:11.083Z,30.23
2023-03-27T07:12:47.132Z,30.03
2023-03-27T07:15:18.053Z,29.75
2023-03-27T07:17:56.982Z,29.45
2023-03-27T07:20:28.026Z,29.15
2023-03-27T07:22:58.048Z,28.43
2023-03-27T07:25:58.796Z,28.62
2023-03-27T07:28:46.369Z,27.55
2023-03-27T07:31:29.898Z,26.50
2023-03-27T07:34:09.154Z,26.78
2023-03-27T07:36:59.771Z,27.11
2023-03-27T07:39:28.507Z,26.28
2023-03-27T07:41:57.909Z,26.21
2023-03-27T07:44:36.801Z,26.47
2023-03-27T07:47:07.644Z,26.63
2023-03-27T07:49:40.070Z,25.73
2023-03-27T07:52:14.726Z,25.82
2023-03-27T07:55:05.175Z,25.31
2023-03-27T08:00:19.042Z,24.68
2023-03-27T08:03:11.185Z,24.63
2023-03-27T08:05:45.301Z,23.81
2023-03-27T08:08:16.347Z,24.16
2023-03-27T08:10:57.214Z,24.91
2023-03-27T08:13:29.091Z,25.12
2023-03-27T08:16:07.783Z,25.20
2023-03-27T08:18:39.424Z,25.18
2023-03-27T08:21:09.579Z,25.47
2023-03-27T08:23:39.742Z,25.00
2023-03-27T08:26:28.089Z,25.06
2023-03-27T08:29:01.094Z,24.67
2023-03-27T08:31:31.783Z,25.41
2023-03-27T08:34:02.315Z,25.47
2023-03-27T08:36:45.986Z,24.79
2023-03-27T08:39:15.090Z,24.57
2023-03-27T08:42:08.790Z,24.29
2023-03-27T08:44:40.095Z,24.02
2023-03-27T08:47:20.107Z,24.13
2023-03-27T08:49:58.189Z,24.81
2023-03-27T08:52:32.301Z,24.99
2023-03-27T08:55:08.261Z,25.50
2023-03-27T08:57:41.134Z,25.04
2023-03-27T09:00:22.875Z,24.96
2023-03-27T09:03:22.641Z,24.29
2023-03-27T09:06:09.665Z,23.73
2023-03-27T09:08:42.782Z,24.54
2023-03-27T09:11:21.902Z,24.59
2023-03-27T09:14:00.202Z,25.18
2023-03-27T09:16:32.110Z,25.13
2023-03-27T09:19:42.506Z,25.73
2023-03-27T09:22:18.223Z,26.36
2023-03-27T09:25:34.850Z,26.71
2023-03-27T09:28:21.780Z,26.89
2023-03-27T09:30:57.988Z,27.06
2023-03-27T09:33:30.628Z,26.86
2023-03-27T09:36:00.467Z,26.35
2023-03-27T09:38:33.446Z,25.77
2023-03-27T09:41:08.324Z,26.08
2023-03-27T09:43:45.271Z,26.65
2023-03-27T09:46:17.802Z,26.05
2023-03-27T09:49:20.193Z,25.94
2023-03-27T09:51:56.950Z,25.78
2023-03-27T09:54:53.744Z,25.56
2023-03-27T09:57:34.032Z,25.85
2023-03-27T10:00:25.869Z,26.74
2023-03-27T10:03:24.670Z,27.40
2023-03-27T10:06:07.988Z,28.07
2023-03-27T10:08:47.450Z,28.84
2023-03-27T10:11:27.674Z,28.84
2023-03-27T10:14:12.176Z,28.32
2023-03-27T10:16:41.765Z,28.51
2023-03-27T10:19:25.634Z,28.33
2023-03-27T10:21:56.172Z,28.57
2023-03-27T10:24:45.717Z,28.87
2023-03-27T10:27:47.564Z,28.62
2023-03-27T10:30:38.185Z,27.81
2023-03-27T10:33:40.043Z,27.37
2023-03-27T10:36:36.822Z,26.57
2023-03-27T10:39:14.194Z,26.42
2023-03-27T10:42:03.244Z,26.70
2023-03-27T10:44:34.354Z,27.69
2023-03-27T10:47:05.752Z,27.49
2023-03-27T10:50:36.285Z,27.67
2023-03-27T10:53:23.350Z,27.89
2023-03-27T10:56:10.898Z,28.20
2023-03-27T10:58:47.400Z,28.66
2023-03-27T11:01:28.671Z,28.56
2023-03-27T11:04:10.486Z,29.19
2023-03-27T11:06:46.719Z,29.19
2023-03-27T11:09:19.825Z,29.50
2023-03-27T11:12:10.806Z,29.43
2023-03-27T11:14:51.696Z,29.89
2023-03-27T11:17:29.228Z,28.92
2023-03-27T11:20:26.233Z,29.62
2023-03-27T11:23:34.550Z,29.47
2023-03-27T11:26:23.506Z,29.20
2023-03-27T11:29:14.193Z,29.90
2023-03-27T11:31:56.097Z,29.68
2023-03-27T11:34:49.284Z,29.56
2023-03-27T11:37:45.667Z,29.76
2023-03-27T11:40:24.115Z,29.95
2023-03-27T11:42:59.005Z,29.19
2023-03-27T11:45:29.941Z,29.49
2023-03-27T11:48:36.482Z,29.88
2023-03-27T11:51:07.995Z,29.79
2023-03-27T11:53:48.904Z,30.50
2023-03-27T11:56:33.528Z,30.41
2023-03-27T11:59:51.465Z,30.45
2023-03-27T12:03:07.033Z,30.35
2023-03-27T12:05:55.412Z,30.50
2023-03-27T12:08:45.941Z,30.16
2023-03-27T12:11:15.025Z,30.25
2023-03-27T12:14:01.727Z,30.63
2023-03-27T12:16:55.295Z,29.95
2023-03-27T12:19:52.046Z,30.38
2023-03-27T12:23:02.575Z,30.25
2023-03-27T12:26:09.177Z,30.82
2023-03-27T12:29:25.765Z,30.65
2023-03-27T12:32:39.677Z,30.09
2023-03-27T12:35:11.702Z,29.84
2023-03-27T12:38:04.437Z,29.68
2023-03-27T12:40:40.001Z,29.39
2023-03-27T12:43:31.822Z,29.53
2023-03-27T12:46:24.817Z,29.64
2023-03-27T12:49:07.803Z,30.18
2023-03-27T12:51:54.301Z,31.22
2023-03-27T12:54:39.402Z,30.54
2023-03-27T12:57:27.534Z,30.82
2023-03-27T13:00:00.271Z,30.55
2023-03-27T13:02:35.078Z,30.21
2023-03-27T13:05:08.635Z,29.10
2023-03-27T13:08:01.972Z,29.00
2023-03-27T13:10:59.540Z,29.06
2023-03-27T13:13:50.322Z,29.15
2023-03-27T13:16:20.520Z,29.54
2023-03-27T13:19:16.924Z,29.42
2023-03-27T13:22:23.903Z,29.62
2023-03-27T13:25:43.720Z,29.59
2023-03-27T13:28:16.024Z,30.12
2023-03-27T13:30:56.086Z,29.17
2023-03-27T13:33:47.703Z,29.80
2023-03-27T13:36:30.317Z,29.08
2023-03-27T13:39:06.626Z,29.02
2023-03-27T13:41:44.628Z,28.89
2023-03-27T13:44:43.833Z,30.30
2023-03-27T13:47:30.726Z,30.03
2023-03-27T13:50:24.157Z,30.43
2023-03-27T13:53:25.859Z,30.20
2023-03-27T13:56:20.814Z,30.01
2023-03-27T13:59:37.786Z,29.93
2023-03-27T14:02:16.535Z,29.76
2023-03-27T14:05:14.125Z,29.73
2023-03-27T14:08:27.200Z,29.75
2023-03-27T14:11:28.106Z,29.49
2023-03-27T14:14:27.874Z,29.16
2023-03-27T14:16:57.100Z,29.16
2023-03-27T14:19:43.231Z,29.24
2023-03-27T14:22:17.775Z,29.12
2023-03-27T14:24:57.976Z,29.49
2023-03-27T14:27:36.009Z,30.27
2023-03-27T14:30:10.340Z,30.74
2023-03-27T14:32:40.325Z,30.96
2023-03-27T14:35:43.985Z,30.70
2023-03-27T14:38:25.042Z,30.26
2023-03-27T14:41:05.246Z,30.18
2023-03-27T14:43:53.597Z,30.64
2023-03-27T14:46:23.805Z,30.27
2023-03-27T14:48:54.757Z,29.80
2023-03-27T14:51:34.054Z,29.60
2023-03-27T14:54:07.133Z,29.36
2023-03-27T14:57:03.086Z,30.83
2023-03-27T14:59:38.809Z,29.95
2023-03-27T15:02:23.823Z,29.93
2023-03-27T15:04:58.502Z,30.02
2023-03-27T15:07:30.816Z,30.49
2023-03-27T15:10:07.758Z,30.71
2023-03-27T15:13:10.177Z,30.64
2023-03-27T15:15:43.079Z,30.88
2023-03-27T15:18:25.722Z,30.92
2023-03-27T15:20:54.705Z,30.82
2023-03-27T15:23:25.553Z,30.88
2023-03-27T15:26:31.781Z,30.64
2023-03-27T15:29:18.868Z,30.62
2023-03-27T15:31:49.331Z,31.12
2023-03-27T15:34:35.260Z,31.48
2023-03-27T15:37:06.490Z,31.77
2023-03-27T15:39:36.780Z,31.64
2023-03-27T15:42:17.207Z,32.26
2023-03-27T15:44:46.196Z,32.30
2023-03-27T15:47:25.831Z,32.44
2023-03-27T15:50:15.423Z,32.71
2023-03-27T15:52:52.447Z,32.89
2023-03-27T15:55:36.610Z,32.92
2023-03-27T15:58:29.894Z,33.08
2023-03-27T16:01:00.742Z,33.42
2023-03-27T16:03:31.554Z,33.35
2023-03-27T16:06:01.303Z,33.45
2023-03-27T16:08:37.148Z,33.89
2023-03-27T16:11:06.597Z,33.95
2023-03-27T16:13:37.503Z,33.85
2023-03-27T16:16:37.080Z,34.28
2023-03-27T16:19:11.788Z,34.17
2023-03-27T16:21:40.922Z,34.49
2023-03-27T16:24:09.575Z,34.51
2023-03-27T16:26:46.085Z,34.91
2023-03-27T16:29:15.056Z,35.67
2023-03-27T16:31:47.977Z,35.79
2023-03-27T16:34:22.272Z,36.25
2023-03-27T16:36:51.960Z,36.83
2023-03-27T16:39:23.918Z,37.33
2023-03-27T16:41:53.096Z,37.48
2023-03-27T16:44:22.406Z,38.09
2023-03-27T16:46:51.113Z,38.83
2023-03-27T16:49:20.060Z,39.18
2023-03-27T16:51:49.282Z,39.30
2023-03-27T16:54:18.850Z,39.86
2023-03-27T16:56:52.379Z,40.06
2023-03-27T16:59:21.236Z,40.43
2023-03-27T17:01:49.962Z,40.19
2023-03-27T17:04:18.716Z,40.00
2023-03-27T17:06:48.375Z,40.71
2023-03-27T17:09:17.157Z,40.48
2023-03-27T17:11:46.392Z,40.77
2023-03-27T17:14:16.004Z,41.16
2023-03-27T17:16:45.235Z,41.12
2023-03-27T17:19:14.298Z,42.37
2023-03-27T17:21:43.242Z,42.96
2023-03-27T17:24:12.109Z,42.39
2023-03-27T17:26:41.650Z,42.79
2023-03-27T17:29:19.271Z,43.02
2023-03-27T17:31:48.321Z,43.09
2023-03-27T17:34:19.739Z,42.95
2023-03-27T17:36:54.205Z,42.92
2023-03-27T17:39:25.221Z,43.10
2023-03-27T17:41:54.129Z,43.10
2023-03-27T17:44:27.820Z,43.50
2023-03-27T17:52:29.215Z,43.95
2023-03-27T17:54:58.791Z,44.27
2023-03-27T17:57:31.158Z,43.83
2023-03-27T18:00:00.347Z,44.02
2023-03-27T18:02:34.422Z,43.59
2023-03-27T18:05:29.881Z,43.67
2023-03-27T18:07:59.216Z,43.66
2023-03-27T18:10:35.430Z,43.48
2023-03-27T18:13:04.464Z,43.56
2023-03-27T18:15:33.519Z,43.37
2023-03-27T18:18:03.884Z,43.28
2023-03-27T18:20:36.694Z,43.38
2023-03-27T18:23:06.437Z,43.40
2023-03-27T18:25:43.390Z,43.53
2023-03-27T18:28:12.614Z,43.58
2023-03-27T18:30:43.626Z,44.02
2023-03-27T18:33:19.364Z,43.89
2023-03-27T18:35:56.580Z,43.95
2023-03-27T18:38:26.370Z,44.07
2023-03-27T18:41:00.089Z,44.00
2023-03-27T18:43:50.463Z,44.36
2023-03-27T18:46:19.683Z,44.14
2023-03-27T18:48:49.557Z,44.24
2023-03-27T18:51:19.205Z,44.07
2023-03-27T18:53:48.593Z,43.66
2023-03-27T18:56:21.603Z,43.79
2023-03-27T18:58:52.454Z,43.68
2023-03-27T19:01:22.005Z,43.57
2023-03-27T19:03:54.528Z,43.78
2023-03-27T19:06:43.644Z,43.77
2023-03-27T19:09:13.364Z,43.64
2023-03-27T19:11:44.201Z,43.61
2023-03-27T19:14:32.184Z,44.04
2023-03-27T19:17:49.063Z,43.84
2023-03-27T19:20:36.506Z,43.78
2023-03-27T19:23:20.084Z,43.66
2023-03-27T19:26:01.646Z,43.69
2023-03-27T19:28:30.575Z,44.03
2023-03-27T19:31:11.054Z,44.43
2023-03-27T19:34:40.043Z,44.20
2023-03-27T19:37:24.715Z,44.68
2023-03-27T19:39:53.850Z,44.45
2023-03-27T19:42:22.676Z,44.11
2023-03-27T19:44:51.538Z,44.19
2023-03-27T19:47:21.613Z,44.24
2023-03-27T19:49:50.379Z,44.11
2023-03-27T19:52:20.374Z,44.06
2023-03-27T19:54:54.134Z,44.29
2023-03-27T19:57:25.307Z,44.31
2023-03-27T19:59:54.088Z,44.56
2023-03-27T20:02:23.276Z,44.58
2023-03-27T20:04:52.396Z,44.71
2023-03-27T20:07:21.122Z,44.81
2023-03-27T20:09:51.526Z,45.00
2023-03-27T20:12:20.196Z,45.11
2023-03-27T20:15:07.022Z,45.17
2023-03-27T20:17:41.287Z,45.05
2023-03-27T20:20:11.413Z,45.66
2023-03-27T20:22:57.154Z,45.63
2023-03-27T20:25:32.521Z,45.82
2023-03-27T20:28:01.677Z,45.91
2023-03-27T20:30:31.075Z,46.25
2023-03-27T20:33:03.255Z,46.09
2023-03-27T20:35:33.228Z,46.26
2023-03-27T20:38:05.786Z,46.38
2023-03-27T20:40:53.856Z,46.79
2023-03-27T20:43:27.511Z,46.68
2023-03-27T20:46:02.308Z,46.65
2023-03-27T20:48:40.517Z,46.70
2023-03-27T20:51:16.388Z,46.95
2023-03-27T20:53:48.534Z,47.20
2023-03-27T20:56:21.954Z,47.25
2023-03-27T20:58:54.106Z,47.94
2023-03-27T21:01:28.093Z,47.78
2023-03-27T21:03:58.798Z,48.07
2023-03-27T21:06:28.381Z,48.37
2023-03-27T21:09:00.850Z,48.07
2023-03-27T21:11:31.200Z,48.34
2023-03-27T21:14:01.261Z,48.74
2023-03-27T21:16:31.785Z,48.69
2023-03-27T21:19:01.021Z,48.86
2023-03-27T21:21:54.360Z,49.22
2023-03-27T21:24:23.539Z,49.81
2023-03-27T21:26:52.021Z,49.75
2023-03-27T21:29:27.927Z,49.86
2023-03-27T21:31:57.040Z,49.80
2023-03-27T21:34:25.948Z,49.88
2023-03-27T21:36:56.267Z,50.06
2023-03-27T21:39:25.484Z,50.22
2023-03-27T21:41:55.315Z,50.90
2023-03-27T21:44:24.031Z,50.56
2023-03-27T21:46:54.906Z,50.81
2023-03-27T21:49:26.763Z,50.91
2023-03-27T21:51:55.520Z,50.75
2023-03-27T21:54:25.476Z,50.68
2023-03-27T21:56:54.100Z,51.09
2023-03-27T21:59:22.784Z,50.37
2023-03-27T22:01:51.773Z,50.36
2023-03-27T22:04:22.217Z,50.70
2023-03-27T22:06:51.097Z,50.68
2023-03-27T22:09:20.626Z,50.88
2023-03-27T22:11:49.666Z,51.15
2023-03-27T22:14:18.591Z,51.83
2023-03-27T22:16:48.972Z,51.82
2023-03-27T22:19:17.663Z,52.16
2023-03-27T22:21:50.890Z,53.42
2023-03-27T22:24:19.450Z,52.59
2023-03-27T22:26:48.459Z,52.90
2023-03-27T22:29:17.091Z,52.89
2023-03-27T22:31:47.034Z,53.21
2023-03-27T22:34:16.012Z,53.38
2023-03-27T22:36:44.753Z,54.02
2023-03-27T22:39:13.539Z,54.43
2023-03-27T22:41:47.036Z,54.23
2023-03-27T22:44:16.635Z,54.64
2023-03-27T22:46:48.966Z,55.14
2023-03-27T22:49:31.580Z,55.16
2023-03-27T22:52:01.621Z,54.89
2023-03-27T22:54:35.340Z,54.91
2023-03-27T22:57:04.894Z,55.50
2023-03-27T22:59:42.112Z,54.83
2023-03-27T23:02:11.201Z,55.50
2023-03-27T23:04:40.071Z,55.74
2023-03-27T23:07:13.235Z,55.37
2023-03-27T23:09:44.724Z,55.30
2023-03-27T23:12:13.492Z,55.69
2023-03-27T23:14:45.250Z,55.78
2023-03-27T23:17:14.178Z,56.26
2023-03-27T23:19:42.902Z,56.26
2023-03-27T23:22:13.285Z,56.19
2023-03-27T23:24:42.041Z,56.38
2023-03-27T23:27:10.834Z,56.36
2023-03-27T23:29:40.607Z,56.76
2023-03-27T23:32:09.463Z,56.84
2023-03-27T23:34:39.121Z,56.70
2023-03-27T23:37:08.024Z,56.85
2023-03-27T23:39:39.967Z,56.83
2023-03-27T23:42:09.470Z,56.77
2023-03-27T23:44:38.837Z,56.66
2023-03-27T23:47:07.385Z,56.47
2023-03-27T23:49:39.089Z,56.64
2023-03-27T23:52:12.511Z,57.03
2023-03-27T23:54:42.314Z,56.99
2023-03-27T23:57:11.047Z,57.09
2023-03-27T23:59:59.389Z,57.24
